sensor_id;sensor_type;location;lat;lon;timestamp;pressure;altitude;pressure_sealevel;temperature;humidity
64853;BME280;56050;55.558;-4.644;2023-04-05T00:01:14;101744.25;;;11.53;62.79
64853;BME280;56050;55.558;-4.644;2023-04-05T00:03:40;101742.34;;;11.54;62.71
64853;BME280;56050;55.558;-4.644;2023-04-05T00:06:07;101733.88;;;11.55;62.67
64853;BME280;56050;55.558;-4.644;2023-04-05T00:08:32;101736.56;;;11.55;62.75
64853;BME280;56050;55.558;-4.644;2023-04-05T00:10:58;101726.91;;;11.54;62.86
64853;BME280;56050;55.558;-4.644;2023-04-05T00:13:23;101709.19;;;11.53;62.75
64853;BME280;56050;55.558;-4.644;2023-04-05T00:15:49;101726.91;;;11.54;62.81
64853;BME280;56050;55.558;-4.644;2023-04-05T00:18:15;101725.38;;;11.53;62.81
64853;BME280;56050;55.558;-4.644;2023-04-05T00:20:51;101713.00;;;11.52;62.81
64853;BME280;56050;55.558;-4.644;2023-04-05T00:23:17;101712.59;;;11.50;62.98
64853;BME280;56050;55.558;-4.644;2023-04-05T00:25:43;101717.59;;;11.48;62.94
64853;BME280;56050;55.558;-4.644;2023-04-05T00:28:09;101707.56;;;11.49;62.98
64853;BME280;56050;55.558;-4.644;2023-04-05T00:30:35;101711.81;;;11.50;63.02
64853;BME280;56050;55.558;-4.644;2023-04-05T00:33:00;101709.13;;;11.50;63.01
64853;BME280;56050;55.558;-4.644;2023-04-05T00:35:26;101710.69;;;11.51;63.01
64853;BME280;56050;55.558;-4.644;2023-04-05T00:37:52;101707.56;;;11.49;62.96
64853;BME280;56050;55.558;-4.644;2023-04-05T00:40:18;101713.75;;;11.49;63.19
64853;BME280;56050;55.558;-4.644;2023-04-05T00:42:43;101707.94;;;11.47;63.20
64853;BME280;56050;55.558;-4.644;2023-04-05T00:45:09;101698.72;;;11.48;63.29
64853;BME280;56050;55.558;-4.644;2023-04-05T00:47:35;101690.19;;;11.46;63.38
64853;BME280;56050;55.558;-4.644;2023-04-05T00:50:00;101685.16;;;11.45;63.38
64853;BME280;56050;55.558;-4.644;2023-04-05T00:52:26;101684.38;;;11.44;63.40
64853;BME280;56050;55.558;-4.644;2023-04-05T00:54:52;101685.16;;;11.45;63.47
64853;BME280;56050;55.558;-4.644;2023-04-05T00:57:18;101687.09;;;11.44;63.46
64853;BME280;56050;55.558;-4.644;2023-04-05T00:59:44;101685.56;;;11.43;63.74
64853;BME280;56050;55.558;-4.644;2023-04-05T01:02:32;101685.91;;;11.42;63.83
64853;BME280;56050;55.558;-4.644;2023-04-05T01:05:13;101679.72;;;11.41;63.84
64853;BME280;56050;55.558;-4.644;2023-04-05T01:10:35;101687.41;;;11.39;64.11
64853;BME280;56050;55.558;-4.644;2023-04-05T01:13:04;101685.09;;;11.38;64.11
64853;BME280;56050;55.558;-4.644;2023-04-05T01:15:30;101685.47;;;11.36;64.24
64853;BME280;56050;55.558;-4.644;2023-04-05T01:17:57;101687.38;;;11.36;64.23
64853;BME280;56050;55.558;-4.644;2023-04-05T01:20:27;101677.75;;;11.35;64.26
64853;BME280;56050;55.558;-4.644;2023-04-05T01:23:16;101684.66;;;11.32;64.27
64853;BME280;56050;55.558;-4.644;2023-04-05T01:26:14;101673.06;;;11.32;64.41
64853;BME280;56050;55.558;-4.644;2023-04-05T01:31:44;101669.22;;;11.33;64.39
64853;BME280;56050;55.558;-4.644;2023-04-05T01:34:38;101667.31;;;11.33;64.63
64853;BME280;56050;55.558;-4.644;2023-04-05T01:37:09;101664.59;;;11.33;64.49
64853;BME280;56050;55.558;-4.644;2023-04-05T01:39:36;101654.53;;;11.30;64.51
64853;BME280;56050;55.558;-4.644;2023-04-05T01:42:02;101650.72;;;11.31;64.83
64853;BME280;56050;55.558;-4.644;2023-04-05T01:44:28;101649.59;;;11.32;64.71
64853;BME280;56050;55.558;-4.644;2023-04-05T01:46:54;101638.00;;;11.32;64.65
64853;BME280;56050;55.558;-4.644;2023-04-05T01:49:20;101634.53;;;11.31;64.49
64853;BME280;56050;55.558;-4.644;2023-04-05T01:51:45;101631.06;;;11.31;64.81
64853;BME280;56050;55.558;-4.644;2023-04-05T01:54:11;101630.69;;;11.32;64.89
64853;BME280;56050;55.558;-4.644;2023-04-05T01:56:36;101614.50;;;11.32;65.07
64853;BME280;56050;55.558;-4.644;2023-04-05T01:59:02;101615.25;;;11.33;65.02
64853;BME280;56050;55.558;-4.644;2023-04-05T02:01:27;101606.03;;;11.34;65.09
64853;BME280;56050;55.558;-4.644;2023-04-05T02:03:52;101605.25;;;11.33;65.20
64853;BME280;56050;55.558;-4.644;2023-04-05T02:06:18;101601.78;;;11.33;65.29
64853;BME280;56050;55.558;-4.644;2023-04-05T02:08:43;101591.00;;;11.33;65.35
64853;BME280;56050;55.558;-4.644;2023-04-05T02:11:09;101586.38;;;11.33;65.47
64853;BME280;56050;55.558;-4.644;2023-04-05T02:13:34;101578.66;;;11.32;65.56
64853;BME280;56050;55.558;-4.644;2023-04-05T02:16:00;101575.19;;;11.31;65.73
64853;BME280;56050;55.558;-4.644;2023-04-05T02:18:25;101564.00;;;11.33;65.98
64853;BME280;56050;55.558;-4.644;2023-04-05T02:21:07;101565.97;;;11.32;65.83
64853;BME280;56050;55.558;-4.644;2023-04-05T02:23:33;101568.28;;;11.34;65.86
64853;BME280;56050;55.558;-4.644;2023-04-05T02:25:59;101570.56;;;11.32;65.92
64853;BME280;56050;55.558;-4.644;2023-04-05T02:28:25;101564.00;;;11.33;66.10
64853;BME280;56050;55.558;-4.644;2023-04-05T02:30:51;101563.66;;;11.34;66.17
64853;BME280;56050;55.558;-4.644;2023-04-05T02:33:16;101557.47;;;11.34;66.30
64853;BME280;56050;55.558;-4.644;2023-04-05T02:35:42;101551.31;;;11.33;66.23
64853;BME280;56050;55.558;-4.644;2023-04-05T02:38:07;101544.00;;;11.34;66.21
64853;BME280;56050;55.558;-4.644;2023-04-05T02:40:34;101541.69;;;11.36;66.26
64853;BME280;56050;55.558;-4.644;2023-04-05T02:43:00;101539.78;;;11.36;66.38
64853;BME280;56050;55.558;-4.644;2023-04-05T02:45:25;101542.47;;;11.36;66.51
64853;BME280;56050;55.558;-4.644;2023-04-05T02:47:52;101538.66;;;11.37;66.56
64853;BME280;56050;55.558;-4.644;2023-04-05T02:50:17;101535.94;;;11.37;66.64
64853;BME280;56050;55.558;-4.644;2023-04-05T02:52:48;101529.78;;;11.37;66.60
64853;BME280;56050;55.558;-4.644;2023-04-05T02:55:15;101535.56;;;11.39;66.58
64853;BME280;56050;55.558;-4.644;2023-04-05T02:57:42;101545.22;;;11.40;66.66
64853;BME280;56050;55.558;-4.644;2023-04-05T03:00:09;101536.34;;;11.39;66.72
64853;BME280;56050;55.558;-4.644;2023-04-05T03:02:36;101535.97;;;11.41;66.60
64853;BME280;56050;55.558;-4.644;2023-04-05T03:05:02;101532.13;;;11.42;66.71
64853;BME280;56050;55.558;-4.644;2023-04-05T03:07:28;101530.22;;;11.42;66.78
64853;BME280;56050;55.558;-4.644;2023-04-05T03:09:54;101529.06;;;11.43;66.79
64853;BME280;56050;55.558;-4.644;2023-04-05T03:12:21;101520.59;;;11.45;66.69
64853;BME280;56050;55.558;-4.644;2023-04-05T03:14:46;101522.50;;;11.44;66.81
64853;BME280;56050;55.558;-4.644;2023-04-05T03:17:12;101527.16;;;11.47;66.75
64853;BME280;56050;55.558;-4.644;2023-04-05T03:19:37;101531.44;;;11.48;66.90
64853;BME280;56050;55.558;-4.644;2023-04-05T03:22:03;101526.03;;;11.48;66.76
64853;BME280;56050;55.558;-4.644;2023-04-05T03:24:28;101524.84;;;11.49;66.79
64853;BME280;56050;55.558;-4.644;2023-04-05T03:26:54;101521.03;;;11.50;66.78
64853;BME280;56050;55.558;-4.644;2023-04-05T03:29:20;101519.88;;;11.51;66.86
64853;BME280;56050;55.558;-4.644;2023-04-05T03:31:45;101513.31;;;11.52;66.89
64853;BME280;56050;55.558;-4.644;2023-04-05T03:34:11;101503.31;;;11.53;66.90
64853;BME280;56050;55.558;-4.644;2023-04-05T03:36:36;101502.53;;;11.52;66.94
64853;BME280;56050;55.558;-4.644;2023-04-05T03:39:10;101503.31;;;11.53;67.04
64853;BME280;56050;55.558;-4.644;2023-04-05T03:41:36;101506.78;;;11.53;67.01
64853;BME280;56050;55.558;-4.644;2023-04-05T03:44:02;101507.56;;;11.54;67.04
64853;BME280;56050;55.558;-4.644;2023-04-05T03:46:28;101493.31;;;11.53;67.11
64853;BME280;56050;55.558;-4.644;2023-04-05T03:48:53;101496.00;;;11.53;67.11
64853;BME280;56050;55.558;-4.644;2023-04-05T03:51:18;101501.78;;;11.55;67.07
64853;BME280;56050;55.558;-4.644;2023-04-05T03:53:44;101488.69;;;11.57;67.14
64853;BME280;56050;55.558;-4.644;2023-04-05T03:56:10;101488.31;;;11.55;67.15
64853;BME280;56050;55.558;-4.644;2023-04-05T03:58:37;101488.31;;;11.55;67.09
64853;BME280;56050;55.558;-4.644;2023-04-05T04:01:02;101489.84;;;11.56;67.26
64853;BME280;56050;55.558;-4.644;2023-04-05T04:03:28;101482.53;;;11.57;67.16
64853;BME280;56050;55.558;-4.644;2023-04-05T04:05:55;101480.59;;;11.57;67.36
64853;BME280;56050;55.558;-4.644;2023-04-05T04:08:21;101482.16;;;11.58;67.22
64853;BME280;56050;55.558;-4.644;2023-04-05T04:10:47;101484.06;;;11.58;67.16
64853;BME280;56050;55.558;-4.644;2023-04-05T04:13:12;101481.38;;;11.58;67.37
64853;BME280;56050;55.558;-4.644;2023-04-05T04:15:38;101471.75;;;11.57;67.39
64853;BME280;56050;55.558;-4.644;2023-04-05T04:18:03;101465.16;;;11.54;67.54
64853;BME280;56050;55.558;-4.644;2023-04-05T04:20:28;101460.91;;;11.53;67.54
64853;BME280;56050;55.558;-4.644;2023-04-05T04:22:56;101463.63;;;11.53;67.69
64853;BME280;56050;55.558;-4.644;2023-04-05T04:25:21;101472.50;;;11.54;67.54
64853;BME280;56050;55.558;-4.644;2023-04-05T04:27:47;101467.47;;;11.52;67.73
64853;BME280;56050;55.558;-4.644;2023-04-05T04:30:14;101464.75;;;11.52;67.79
64853;BME280;56050;55.558;-4.644;2023-04-05T04:32:41;101465.94;;;11.51;67.84
64853;BME280;56050;55.558;-4.644;2023-04-05T04:35:22;101457.81;;;11.51;67.83
64853;BME280;56050;55.558;-4.644;2023-04-05T04:40:29;101460.91;;;11.53;68.01
64853;BME280;56050;55.558;-4.644;2023-04-05T04:43:03;101465.16;;;11.54;67.86
64853;BME280;56050;55.558;-4.644;2023-04-05T04:45:29;101462.44;;;11.54;68.03
64853;BME280;56050;55.558;-4.644;2023-04-05T04:47:59;101460.91;;;11.53;68.02
64853;BME280;56050;55.558;-4.644;2023-04-05T04:50:25;101455.13;;;11.55;67.94
64853;BME280;56050;55.558;-4.644;2023-04-05T04:52:51;101455.56;;;11.57;67.92
64853;BME280;56050;55.558;-4.644;2023-04-05T04:55:17;101459.44;;;11.59;68.00
64853;BME280;56050;55.558;-4.644;2023-04-05T04:57:42;101447.47;;;11.60;67.93
64853;BME280;56050;55.558;-4.644;2023-04-05T05:00:09;101447.09;;;11.62;67.98
64853;BME280;56050;55.558;-4.644;2023-04-05T05:02:38;101447.88;;;11.62;67.83
64853;BME280;56050;55.558;-4.644;2023-04-05T05:05:05;101444.03;;;11.63;68.03
64853;BME280;56050;55.558;-4.644;2023-04-05T05:07:31;101444.41;;;11.65;67.87
64853;BME280;56050;55.558;-4.644;2023-04-05T05:09:56;101437.88;;;11.66;68.06
64853;BME280;56050;55.558;-4.644;2023-04-05T05:12:22;101437.53;;;11.68;68.02
64853;BME280;56050;55.558;-4.644;2023-04-05T05:14:47;101437.53;;;11.68;68.01
64853;BME280;56050;55.558;-4.644;2023-04-05T05:17:13;101444.88;;;11.71;68.07
64853;BME280;56050;55.558;-4.644;2023-04-05T05:19:38;101442.56;;;11.69;67.95
64853;BME280;56050;55.558;-4.644;2023-04-05T05:22:04;101447.22;;;11.72;68.02
64853;BME280;56050;55.558;-4.644;2023-04-05T05:24:29;101452.59;;;11.72;68.10
64853;BME280;56050;55.558;-4.644;2023-04-05T05:26:54;101445.69;;;11.75;68.03
64853;BME280;56050;55.558;-4.644;2023-04-05T05:29:20;101439.88;;;11.76;68.01
64853;BME280;56050;55.558;-4.644;2023-04-05T05:31:45;101438.75;;;11.77;68.17
64853;BME280;56050;55.558;-4.644;2023-04-05T05:34:11;101430.66;;;11.77;68.10
64853;BME280;56050;55.558;-4.644;2023-04-05T05:36:36;101432.22;;;11.78;68.16
64853;BME280;56050;55.558;-4.644;2023-04-05T05:39:02;101426.41;;;11.80;68.08
64853;BME280;56050;55.558;-4.644;2023-04-05T05:41:30;101423.72;;;11.80;68.12
64853;BME280;56050;55.558;-4.644;2023-04-05T05:43:55;101430.69;;;11.81;68.30
64853;BME280;56050;55.558;-4.644;2023-04-05T05:46:20;101427.97;;;11.81;68.33
64853;BME280;56050;55.558;-4.644;2023-04-05T05:48:46;101422.59;;;11.81;68.33
64853;BME280;56050;55.558;-4.644;2023-04-05T05:51:11;101416.00;;;11.82;68.28
64853;BME280;56050;55.558;-4.644;2023-04-05T05:53:38;101417.97;;;11.85;68.41
64853;BME280;56050;55.558;-4.644;2023-04-05T05:56:04;101420.31;;;11.87;68.21
64853;BME280;56050;55.558;-4.644;2023-04-05T05:58:30;101419.13;;;11.88;68.24
64853;BME280;56050;55.558;-4.644;2023-04-05T06:00:55;101423.38;;;11.89;68.43
64853;BME280;56050;55.558;-4.644;2023-04-05T06:03:22;101415.69;;;11.91;68.29
64853;BME280;56050;55.558;-4.644;2023-04-05T06:05:56;101418.00;;;11.89;68.36
64853;BME280;56050;55.558;-4.644;2023-04-05T06:08:25;101416.47;;;11.91;68.33
64853;BME280;56050;55.558;-4.644;2023-04-05T06:10:53;101423.41;;;11.92;68.42
64853;BME280;56050;55.558;-4.644;2023-04-05T06:13:19;101418.78;;;11.93;68.53
64853;BME280;56050;55.558;-4.644;2023-04-05T06:15:46;101414.16;;;11.93;68.57
64853;BME280;56050;55.558;-4.644;2023-04-05T06:18:12;101416.09;;;11.93;68.62
64853;BME280;56050;55.558;-4.644;2023-04-05T06:20:37;101414.16;;;11.93;68.67
64853;BME280;56050;55.558;-4.644;2023-04-05T06:23:08;101410.69;;;11.93;68.73
64853;BME280;56050;55.558;-4.644;2023-04-05T06:25:33;101413.00;;;11.94;68.90
64853;BME280;56050;55.558;-4.644;2023-04-05T06:28:00;101408.38;;;11.95;68.75
64853;BME280;56050;55.558;-4.644;2023-04-05T06:30:26;101400.28;;;11.95;68.82
64853;BME280;56050;55.558;-4.644;2023-04-05T06:32:51;101410.69;;;11.96;68.92
64853;BME280;56050;55.558;-4.644;2023-04-05T06:35:19;101409.16;;;11.95;68.90
64853;BME280;56050;55.558;-4.644;2023-04-05T06:37:45;101413.78;;;11.95;69.07
64853;BME280;56050;55.558;-4.644;2023-04-05T06:40:11;101407.59;;;11.94;69.06
64853;BME280;56050;55.558;-4.644;2023-04-05T06:42:36;101408.75;;;11.93;68.97
64853;BME280;56050;55.558;-4.644;2023-04-05T06:45:03;101409.13;;;11.92;69.07
64853;BME280;56050;55.558;-4.644;2023-04-05T06:47:32;101410.28;;;11.91;69.24
64853;BME280;56050;55.558;-4.644;2023-04-05T06:49:57;101406.84;;;11.90;69.25
64853;BME280;56050;55.558;-4.644;2023-04-05T06:52:23;101404.50;;;11.89;69.23
64853;BME280;56050;55.558;-4.644;2023-04-05T06:54:48;101402.56;;;11.89;69.25
64853;BME280;56050;55.558;-4.644;2023-04-05T06:57:14;101403.34;;;11.90;69.32
64853;BME280;56050;55.558;-4.644;2023-04-05T06:59:39;101401.44;;;11.90;69.24
64853;BME280;56050;55.558;-4.644;2023-04-05T07:02:05;101404.88;;;11.91;69.47
64853;BME280;56050;55.558;-4.644;2023-04-05T07:04:30;101406.44;;;11.92;69.22
64853;BME280;56050;55.558;-4.644;2023-04-05T07:07:01;101406.44;;;11.92;69.29
64853;BME280;56050;55.558;-4.644;2023-04-05T07:09:26;101409.13;;;11.92;69.28
64853;BME280;56050;55.558;-4.644;2023-04-05T07:11:55;101412.97;;;11.91;69.39
64853;BME280;56050;55.558;-4.644;2023-04-05T07:14:21;101411.44;;;11.90;69.70
64853;BME280;56050;55.558;-4.644;2023-04-05T07:16:47;101417.63;;;11.90;69.49
64853;BME280;56050;55.558;-4.644;2023-04-05T07:19:13;101418.38;;;11.91;69.82
64853;BME280;56050;55.558;-4.644;2023-04-05T07:21:38;101412.63;;;11.92;69.48
64853;BME280;56050;55.558;-4.644;2023-04-05T07:24:04;101409.91;;;11.92;69.54
64853;BME280;56050;55.558;-4.644;2023-04-05T07:26:30;101413.00;;;11.94;69.70
64853;BME280;56050;55.558;-4.644;2023-04-05T07:29:00;101414.94;;;11.97;69.49
64853;BME280;56050;55.558;-4.644;2023-04-05T07:31:26;101405.72;;;11.98;69.49
64853;BME280;56050;55.558;-4.644;2023-04-05T07:33:51;101403.41;;;12.00;69.46
64853;BME280;56050;55.558;-4.644;2023-04-05T07:36:17;101404.97;;;12.01;69.45
64853;BME280;56050;55.558;-4.644;2023-04-05T07:38:43;101402.63;;;12.03;69.50
64853;BME280;56050;55.558;-4.644;2023-04-05T07:41:09;101403.03;;;12.05;69.48
64853;BME280;56050;55.558;-4.644;2023-04-05T07:43:35;101399.19;;;12.06;69.58
64853;BME280;56050;55.558;-4.644;2023-04-05T07:46:02;101397.25;;;12.10;69.40
64853;BME280;56050;55.558;-4.644;2023-04-05T07:48:28;101403.03;;;12.12;69.35
64853;BME280;56050;55.558;-4.644;2023-04-05T07:50:53;101402.69;;;12.14;69.36
64853;BME280;56050;55.558;-4.644;2023-04-05T07:53:19;101409.25;;;12.16;69.41
64853;BME280;56050;55.558;-4.644;2023-04-05T07:55:44;101401.94;;;12.17;69.40
64853;BME280;56050;55.558;-4.644;2023-04-05T07:58:10;101403.47;;;12.18;69.58
64853;BME280;56050;55.558;-4.644;2023-04-05T08:00:36;101399.63;;;12.19;69.66
64853;BME280;56050;55.558;-4.644;2023-04-05T08:03:02;101416.97;;;12.21;69.55
64853;BME280;56050;55.558;-4.644;2023-04-05T08:05:28;101404.66;;;12.24;69.60
64853;BME280;56050;55.558;-4.644;2023-04-05T08:07:54;101403.88;;;12.27;69.41
64853;BME280;56050;55.558;-4.644;2023-04-05T08:10:22;101397.72;;;12.30;69.72
64853;BME280;56050;55.558;-4.644;2023-04-05T08:12:48;101400.06;;;12.31;69.41
64853;BME280;56050;55.558;-4.644;2023-04-05T08:15:13;101406.63;;;12.34;69.51
64853;BME280;56050;55.558;-4.644;2023-04-05T08:17:39;101404.34;;;12.40;69.38
64853;BME280;56050;55.558;-4.644;2023-04-05T08:20:05;101403.56;;;12.43;69.21
64853;BME280;56050;55.558;-4.644;2023-04-05T08:22:31;101401.25;;;12.45;69.35
64853;BME280;56050;55.558;-4.644;2023-04-05T08:24:57;101395.88;;;12.48;69.35
64853;BME280;56050;55.558;-4.644;2023-04-05T08:27:22;101397.78;;;12.51;69.10
64853;BME280;56050;55.558;-4.644;2023-04-05T08:29:47;101390.47;;;12.55;69.18
64853;BME280;56050;55.558;-4.644;2023-04-05T08:32:13;101387.00;;;12.58;69.10
64853;BME280;56050;55.558;-4.644;2023-04-05T08:34:38;101386.59;;;12.60;69.18
64853;BME280;56050;55.558;-4.644;2023-04-05T08:37:04;101385.47;;;12.61;68.92
64853;BME280;56050;55.558;-4.644;2023-04-05T08:39:29;101381.22;;;12.63;69.09
64853;BME280;56050;55.558;-4.644;2023-04-05T08:42:16;101385.06;;;12.66;69.05
64853;BME280;56050;55.558;-4.644;2023-04-05T08:44:43;101391.66;;;12.68;68.90
64853;BME280;56050;55.558;-4.644;2023-04-05T08:47:11;101385.47;;;12.68;68.93
64853;BME280;56050;55.558;-4.644;2023-04-05T08:49:43;101389.72;;;12.69;68.98
64853;BME280;56050;55.558;-4.644;2023-04-05T08:52:09;101386.63;;;12.70;69.04
64853;BME280;56050;55.558;-4.644;2023-04-05T08:54:34;101392.03;;;12.70;69.03
64853;BME280;56050;55.558;-4.644;2023-04-05T08:57:02;101394.38;;;12.72;68.97
64853;BME280;56050;55.558;-4.644;2023-04-05T08:59:31;101384.31;;;12.72;69.04
64853;BME280;56050;55.558;-4.644;2023-04-05T09:02:03;101391.25;;;12.73;69.19
64853;BME280;56050;55.558;-4.644;2023-04-05T09:04:36;101376.97;;;12.76;69.13
64853;BME280;56050;55.558;-4.644;2023-04-05T09:07:05;101387.78;;;12.76;69.19
64853;BME280;56050;55.558;-4.644;2023-04-05T09:09:32;101388.94;;;12.79;69.18
64853;BME280;56050;55.558;-4.644;2023-04-05T09:11:59;101394.00;;;12.80;69.22
64853;BME280;56050;55.558;-4.644;2023-04-05T09:14:27;101397.84;;;12.83;69.15
64853;BME280;56050;55.558;-4.644;2023-04-05T09:16:54;101388.59;;;12.84;69.07
64853;BME280;56050;55.558;-4.644;2023-04-05T09:19:20;101388.19;;;12.85;69.18
64853;BME280;56050;55.558;-4.644;2023-04-05T09:24:31;101395.94;;;12.83;69.40
64853;BME280;56050;55.558;-4.644;2023-04-05T09:27:13;101399.00;;;12.85;69.35
64853;BME280;56050;55.558;-4.644;2023-04-05T09:29:40;101407.91;;;12.86;69.34
64853;BME280;56050;55.558;-4.644;2023-04-05T09:32:08;101402.88;;;12.84;69.27
64853;BME280;56050;55.558;-4.644;2023-04-05T09:34:34;101404.03;;;12.83;69.28
64853;BME280;56050;55.558;-4.644;2023-04-05T09:37:13;101402.88;;;12.84;69.64
64853;BME280;56050;55.558;-4.644;2023-04-05T09:39:39;101400.94;;;12.88;69.46
64853;BME280;56050;55.558;-4.644;2023-04-05T09:44:57;101408.69;;;12.93;69.33
64853;BME280;56050;55.558;-4.644;2023-04-05T09:47:28;101408.69;;;12.97;69.23
64853;BME280;56050;55.558;-4.644;2023-04-05T09:50:03;101397.88;;;13.01;69.35
64853;BME280;56050;55.558;-4.644;2023-04-05T09:52:42;101397.09;;;13.04;69.12
64853;BME280;56050;55.558;-4.644;2023-04-05T09:55:08;101400.56;;;13.04;69.32
64853;BME280;56050;55.558;-4.644;2023-04-05T09:57:36;101401.34;;;13.05;69.41
64853;BME280;56050;55.558;-4.644;2023-04-05T10:00:03;101401.38;;;13.08;69.33
64853;BME280;56050;55.558;-4.644;2023-04-05T10:02:36;101406.03;;;13.11;69.30
64853;BME280;56050;55.558;-4.644;2023-04-05T10:05:08;101400.59;;;13.15;69.42
64853;BME280;56050;55.558;-4.644;2023-04-05T10:07:41;101389.41;;;13.20;69.11
64853;BME280;56050;55.558;-4.644;2023-04-05T10:10:11;101398.28;;;13.24;69.30
64853;BME280;56050;55.558;-4.644;2023-04-05T10:12:38;101395.97;;;13.29;69.29
64853;BME280;56050;55.558;-4.644;2023-04-05T10:15:06;101390.16;;;13.34;69.34
64853;BME280;56050;55.558;-4.644;2023-04-05T10:20:14;101392.84;;;13.45;69.15
64853;BME280;56050;55.558;-4.644;2023-04-05T10:23:00;101394.78;;;13.48;69.14
64853;BME280;56050;55.558;-4.644;2023-04-05T10:30:57;101389.75;;;13.61;69.11
64853;BME280;56050;55.558;-4.644;2023-04-05T10:42:00;101400.56;;;13.64;69.26
64853;BME280;56050;55.558;-4.644;2023-04-05T10:44:30;101402.09;;;13.65;69.04
64853;BME280;56050;55.558;-4.644;2023-04-05T10:46:57;101395.91;;;13.65;69.25
64853;BME280;56050;55.558;-4.644;2023-04-05T10:52:03;101399.75;;;13.67;68.99
64853;BME280;56050;55.558;-4.644;2023-04-05T10:54:33;101394.34;;;13.67;69.06
64853;BME280;56050;55.558;-4.644;2023-04-05T10:57:02;101393.19;;;13.68;69.13
64853;BME280;56050;55.558;-4.644;2023-04-05T10:59:29;101397.06;;;13.71;69.29
64853;BME280;56050;55.558;-4.644;2023-04-05T11:01:56;101397.84;;;13.75;69.18
64853;BME280;56050;55.558;-4.644;2023-04-05T11:04:21;101392.38;;;13.78;69.24
64853;BME280;56050;55.558;-4.644;2023-04-05T11:07:10;101388.91;;;13.81;69.19
64853;BME280;56050;55.558;-4.644;2023-04-05T11:09:37;101394.31;;;13.85;68.96
64853;BME280;56050;55.558;-4.644;2023-04-05T11:12:03;101393.53;;;13.88;69.05
64853;BME280;56050;55.558;-4.644;2023-04-05T11:14:36;101389.69;;;13.89;69.09
64853;BME280;56050;55.558;-4.644;2023-04-05T11:17:03;101386.16;;;13.92;69.00
64853;BME280;56050;55.558;-4.644;2023-04-05T11:22:06;101383.81;;;13.97;68.89
64853;BME280;56050;55.558;-4.644;2023-04-05T11:24:49;101381.88;;;14.01;68.81
64853;BME280;56050;55.558;-4.644;2023-04-05T11:27:15;101377.97;;;14.06;68.87
64853;BME280;56050;55.558;-4.644;2023-04-05T11:29:45;101384.16;;;14.10;68.87
64853;BME280;56050;55.558;-4.644;2023-04-05T11:32:12;101373.31;;;14.13;68.66
64853;BME280;56050;55.558;-4.644;2023-04-05T11:34:41;101379.88;;;14.16;68.56
64853;BME280;56050;55.558;-4.644;2023-04-05T11:37:06;101387.97;;;14.20;68.85
64853;BME280;56050;55.558;-4.644;2023-04-05T11:39:32;101382.97;;;14.22;68.68
64853;BME280;56050;55.558;-4.644;2023-04-05T11:42:02;101384.50;;;14.23;68.61
64853;BME280;56050;55.558;-4.644;2023-04-05T11:44:44;101378.28;;;14.26;68.85
64853;BME280;56050;55.558;-4.644;2023-04-05T11:47:15;101376.34;;;14.30;68.53
64853;BME280;56050;55.558;-4.644;2023-04-05T11:49:41;101371.69;;;14.34;68.60
64853;BME280;56050;55.558;-4.644;2023-04-05T11:52:14;101367.81;;;14.38;68.59
64853;BME280;56050;55.558;-4.644;2023-04-05T11:54:40;101368.91;;;14.44;68.44
64853;BME280;56050;55.558;-4.644;2023-04-05T11:57:21;101368.53;;;14.46;68.58
64853;BME280;56050;55.558;-4.644;2023-04-05T11:59:51;101365.41;;;14.47;68.44
64853;BME280;56050;55.558;-4.644;2023-04-05T12:02:17;101368.91;;;14.48;68.31
64853;BME280;56050;55.558;-4.644;2023-04-05T12:04:56;101355.75;;;14.46;68.51
64853;BME280;56050;55.558;-4.644;2023-04-05T12:07:25;101362.31;;;14.49;68.31
64853;BME280;56050;55.558;-4.644;2023-04-05T12:12:28;101363.47;;;14.51;68.57
64853;BME280;56050;55.558;-4.644;2023-04-05T12:15:00;101356.88;;;14.52;68.62
64853;BME280;56050;55.558;-4.644;2023-04-05T12:17:41;101355.69;;;14.53;68.74
64853;BME280;56050;55.558;-4.644;2023-04-05T12:20:08;101365.38;;;14.58;68.54
64853;BME280;56050;55.558;-4.644;2023-04-05T12:22:37;101358.38;;;14.60;68.40
64853;BME280;56050;55.558;-4.644;2023-04-05T12:25:03;101359.13;;;14.61;68.31
64853;BME280;56050;55.558;-4.644;2023-04-05T12:27:29;101365.72;;;14.60;68.37
64853;BME280;56050;55.558;-4.644;2023-04-05T12:32:51;101356.06;;;14.55;68.66
64853;BME280;56050;55.558;-4.644;2023-04-05T12:35:20;101357.25;;;14.54;68.62
64853;BME280;56050;55.558;-4.644;2023-04-05T12:37:48;101354.13;;;14.56;68.76
64853;BME280;56050;55.558;-4.644;2023-04-05T12:40:22;101358.38;;;14.57;68.65
64853;BME280;56050;55.558;-4.644;2023-04-05T12:42:51;101345.63;;;14.57;68.47
64853;BME280;56050;55.558;-4.644;2023-04-05T12:45:16;101351.00;;;14.61;68.71
64853;BME280;56050;55.558;-4.644;2023-04-05T12:47:49;101354.47;;;14.61;68.53
64853;BME280;56050;55.558;-4.644;2023-04-05T12:50:16;101352.53;;;14.62;68.60
64853;BME280;56050;55.558;-4.644;2023-04-05T12:52:59;101361.09;;;14.60;68.92
64853;BME280;56050;55.558;-4.644;2023-04-05T12:55:29;101356.03;;;14.59;68.67
64853;BME280;56050;55.558;-4.644;2023-04-05T12:57:59;101347.53;;;14.57;68.63
64853;BME280;56050;55.558;-4.644;2023-04-05T13:00:27;101353.34;;;14.55;68.78
64853;BME280;56050;55.558;-4.644;2023-04-05T13:02:55;101352.97;;;14.53;68.72
64853;BME280;56050;55.558;-4.644;2023-04-05T13:05:22;101352.22;;;14.53;68.68
64853;BME280;56050;55.558;-4.644;2023-04-05T13:07:48;101358.81;;;14.52;68.82
64853;BME280;56050;55.558;-4.644;2023-04-05T13:10:14;101347.56;;;14.50;68.97
64853;BME280;56050;55.558;-4.644;2023-04-05T13:12:40;101350.31;;;14.46;68.67
64853;BME280;56050;55.558;-4.644;2023-04-05T13:15:06;101346.84;;;14.42;68.78
64853;BME280;56050;55.558;-4.644;2023-04-05T13:17:32;101350.75;;;14.38;68.90
64853;BME280;56050;55.558;-4.644;2023-04-05T13:19:57;101356.97;;;14.35;68.93
64853;BME280;56050;55.558;-4.644;2023-04-05T13:22:22;101345.00;;;14.32;68.93
64853;BME280;56050;55.558;-4.644;2023-04-05T13:24:48;101350.00;;;14.30;68.89